ac-strasbourg.fr alexa rank chart, ac-strasbourg.fr alexa rank daily changes

ac-strasbourg.fr alexa rank chart, ac-strasbourg.fr alexa rank daily changes

ac-strasbourg.fr
Actual rank:
160 202

RANK HISTORY

Date Rank Diff
2018/05/22 160 202 +78 457
2018/05/21 81 745 +38 230
2018/05/20 43 515 -2 567
2018/05/19 46 082 -1 897
2018/05/18 47 979 +9 067
2018/05/17 38 912 +16 809
2018/05/16 22 103 -16 114
2018/05/15 38 217 -671
2018/05/14 38 888 -7 396
2018/05/13 46 284 +4 259
2018/05/12 42 025 -26 883
2018/05/11 68 908 +7 415
2018/05/10 61 493 +7 294
2018/05/09 54 199 -58
2018/05/08 54 257 -39 628
2018/05/07 93 885 +34 181
2018/05/06 59 704 +20 835
2018/05/05 38 869 -17 669
2018/05/04 56 538 +16 084
2018/05/03 40 454 -90 802
2018/05/02 131 256 +86 478
2018/05/01 44 778 -111 379
2018/04/30 156 157 +92 666
2018/04/29 63 491 -3 342
2018/04/28 66 833 -23 883
2018/04/27 90 716 +47 169
2018/04/26 43 547 -62 602
2018/04/25 106 149 +45 012
2018/04/24 61 137 -29 579
2018/04/23 90 716 +49 646
2018/04/22 41 070 -11 897
2018/04/21 52 967 +5 691
2018/04/20 47 276 +20 500
2018/04/19 26 776 -12 270
2018/04/18 39 046 -16 416
2018/04/17 55 462 +17 639
2018/04/16 37 823 -1 957
2018/04/15 39 780 -6 951
2018/04/14 46 731 +289
2018/04/13 46 442 +10 166
2018/04/12 36 276 -2 513
2018/04/11 38 789 -456
2018/04/10 39 245 +7 769
2018/04/09 31 476 -18 733
2018/04/08 50 209 +14 236
2018/04/07 35 973 +5 184
2018/04/06 30 789 -11 344
2018/04/05 42 133 -3 959
2018/04/04 46 092 +12 991
2018/04/03 33 101 -24 360
2018/04/02 57 461 -7 446
2018/04/01 64 907 +17 763
2018/03/31 47 144 +18 782
2018/03/30 28 362 -12 427
2018/03/29 40 789 -345
2018/03/28 41 134 +6 477
2018/03/27 34 657 -14 916
2018/03/26 49 573 -488
2018/03/25 50 061 +3 712
2018/03/24 46 349 +6 514
2018/03/23 39 835

WIDGET FOR YOUR SITE

DOMAINS WITH THE NEAREST RANK

Domain Rank
flibustas.space 160 197
hairmaniac.ru 160 198
wpformation.com 160 199
alsearsmd.com 160 200
hdegedizi1.com 160 201
ac-strasbourg.fr 160 202
7-forum.com 160 203
call-a-pizza.de 160 204
flying-pizza.de 160 205
forenworld.at 160 206
hr-online.de 160 207

DOMAINS WITH THE NEAREST RANK BY TLD .fr

Domain Rank
delfdalf.fr 159 421
laffut.fr 159 657
lepetitmoutard.fr 159 804
ancestry.fr 159 888
localiseruntelephone.fr 159 954
ac-strasbourg.fr 160 202
anglais-rapide.fr 160 228
in2p3.fr 160 340
animeland.fr 160 362
trouver.fr 160 416
projetsdiy.fr 160 417